Terminal Aerodrome Forecast
Issued by NWS

Home | Current Version | Previous Version | Text Only | Print | Product List | Glossary On
Versions: 1 2 3 4 5 6 7 8 9 10 11 12 13 14 15 16 17 18 19 20
000
FTUS42 KTAE 252339
TAFDHN
TAF
KDHN 252339Z 2600/2624 VRB06KT P6SM FEW060
     FM261000 12006KT 4SM BR BKN015
      TEMPO 2610/2613 2SM BR SCT008 OVC012
     FM261500 16008KT P6SM VCTS BKN030CB PROB30 2615/2618 VRB20KT
      5SM -TSRA BKN025CB
     FM261800 17010KT P6SM SCT035 BKN070
      TEMPO 2619/2621 VRB25KT 3SM TSRA BKN050CB=

USA.gov is the U.S. government's official web portal to all federal, state and local government web resources and services.